Time;durP1;ratioP1;P1;durP2;ratioP2;P2;SDS_P1;SDS_P2;PMS_P1;PMS_P2;Temp;Humidity;BMP_temperature;BMP_pressure;BME280_temperature;BME280_humidity;BME280_pressure;Samples;Min_cycle;Max_cycle;Signal;HPM_P1;HPM_P2
2023/08/03 00:00:44;;;;;;;1.00;0.90;;;25.40;59.80;;;;;;219210;1281;22585;-49
2023/08/03 00:06:04;;;;;;;1.80;1.20;;;25.40;59.80;;;;;;219083;1273;24241;-54
2023/08/03 00:11:09;;;;;;;1.20;1.20;;;25.40;59.80;;;;;;219384;1282;22608;-53
2023/08/03 00:16:13;;;;;;;1.50;1.30;;;25.40;59.80;;;;;;219480;1286;26675;-51
2023/08/03 00:21:17;;;;;;;2.70;1.40;;;25.40;59.90;;;;;;219458;1280;22660;-55
2023/08/03 00:26:21;;;;;;;1.30;1.20;;;25.40;59.80;;;;;;219331;1286;24724;-52
2023/08/03 00:31:26;;;;;;;1.40;1.30;;;25.40;60.00;;;;;;219361;1287;22535;-54
2023/08/03 00:36:30;;;;;;;1.60;1.40;;;25.40;59.90;;;;;;219438;1271;22675;-53
2023/08/03 00:41:35;;;;;;;2.40;1.30;;;25.40;59.90;;;;;;219432;1279;22540;-55
2023/08/03 00:46:39;;;;;;;1.20;1.10;;;25.40;60.00;;;;;;219479;1271;22543;-52
2023/08/03 00:51:44;;;;;;;1.40;1.30;;;25.40;60.20;;;;;;219348;1283;22560;-53
2023/08/03 00:56:49;;;;;;;1.30;1.20;;;25.40;60.20;;;;;;219217;1281;22659;-55
2023/08/03 01:01:53;;;;;;;1.20;1.10;;;25.40;60.00;;;;;;219425;1274;22632;-53
2023/08/03 01:06:57;;;;;;;1.20;1.10;;;25.40;60.00;;;;;;219630;1286;22532;-53
2023/08/03 01:12:02;;;;;;;1.30;1.20;;;25.40;60.20;;;;;;219312;1287;22526;-51
2023/08/03 01:17:06;;;;;;;1.50;1.40;;;25.30;60.00;;;;;;219398;1286;22551;-48
2023/08/03 01:22:13;;;;;;;1.60;1.30;;;25.40;60.00;;;;;;219347;1286;22958;-50
2023/08/03 01:27:18;;;;;;;1.00;1.00;;;25.30;60.00;;;;;;219358;1286;22664;-50
2023/08/03 01:32:22;;;;;;;1.10;1.10;;;25.40;59.90;;;;;;219501;1285;24405;-52
2023/08/03 01:37:27;;;;;;;1.50;1.30;;;25.40;59.80;;;;;;219490;1280;25366;-49
2023/08/03 01:42:31;;;;;;;1.50;1.40;;;25.40;59.90;;;;;;219442;1286;22676;-50
2023/08/03 01:47:35;;;;;;;1.00;1.00;;;25.40;59.90;;;;;;219327;1283;22683;-49
2023/08/03 01:52:40;;;;;;;1.10;1.10;;;25.40;60.00;;;;;;219581;1286;24344;-51
2023/08/03 01:57:44;;;;;;;1.00;0.90;;;25.40;59.90;;;;;;219512;1286;22602;-49
2023/08/03 02:02:48;;;;;;;0.80;0.80;;;25.40;59.70;;;;;;219282;1281;24260;-49
2023/08/03 02:07:55;;;;;;;1.30;1.20;;;25.40;59.80;;;;;;219330;1280;24226;-49
2023/08/03 02:13:00;;;;;;;1.30;1.20;;;25.40;59.90;;;;;;219490;1285;22540;-50
2023/08/03 02:18:05;;;;;;;1.00;1.00;;;25.40;59.70;;;;;;219206;1286;211291;-51
2023/08/03 02:23:09;;;;;;;1.10;0.90;;;25.40;59.90;;;;;;219398;1287;22536;-48
2023/08/03 02:28:13;;;;;;;0.80;0.80;;;25.40;59.90;;;;;;219368;1283;25347;-47
2023/08/03 02:33:25;;;;;;;1.30;1.10;;;25.40;59.90;;;;;;219165;1286;23980;-48
2023/08/03 02:38:30;;;;;;;2.20;1.00;;;25.30;60.00;;;;;;219565;1283;24265;-47
2023/08/03 02:43:35;;;;;;;1.40;1.30;;;25.50;59.60;;;;;;219439;1280;22527;-51
2023/08/03 02:48:40;;;;;;;1.10;1.10;;;25.40;59.90;;;;;;219450;1286;24339;-49
2023/08/03 02:53:44;;;;;;;1.40;1.30;;;25.40;59.90;;;;;;219330;1286;22822;-49
2023/08/03 02:58:49;;;;;;;1.40;1.20;;;25.40;60.00;;;;;;219440;1283;22761;-46
2023/08/03 03:03:59;;;;;;;1.00;1.00;;;25.40;60.00;;;;;;219408;1283;22540;-50
2023/08/03 03:09:04;;;;;;;1.10;1.00;;;25.30;60.10;;;;;;219380;1286;22571;-48
2023/08/03 03:14:09;;;;;;;1.10;1.00;;;25.30;60.00;;;;;;219594;1283;22527;-47
2023/08/03 03:19:14;;;;;;;1.00;1.00;;;25.30;60.30;;;;;;219253;1281;24248;-49
2023/08/03 03:24:18;;;;;;;1.10;1.10;;;25.20;60.30;;;;;;219492;1280;22543;-51
2023/08/03 03:29:22;;;;;;;1.30;1.20;;;25.30;60.50;;;;;;219450;1285;24679;-48
2023/08/03 03:34:28;;;;;;;0.90;0.90;;;25.30;60.40;;;;;;219306;1285;25693;-45
2023/08/03 03:39:32;;;;;;;1.30;1.20;;;25.30;60.30;;;;;;219279;1271;22536;-49
2023/08/03 03:44:40;;;;;;;1.10;1.10;;;25.40;60.30;;;;;;219493;1280;22540;-51
2023/08/03 03:49:46;;;;;;;1.30;1.20;;;25.40;60.20;;;;;;219389;1283;22537;-51
2023/08/03 03:54:54;;;;;;;1.10;1.10;;;25.30;59.90;;;;;;219449;1285;22640;-48
2023/08/03 04:00:01;;;;;;;1.00;1.00;;;25.30;60.00;;;;;;219384;1286;24195;-49
2023/08/03 04:05:17;;;;;;;1.00;1.00;;;25.30;60.00;;;;;;219384;1282;24196;-50
2023/08/03 04:10:21;;;;;;;1.20;1.10;;;25.40;59.80;;;;;;219385;1283;22605;-49
2023/08/03 04:15:26;;;;;;;1.10;1.00;;;25.40;59.80;;;;;;219244;1286;22647;-50
2023/08/03 04:20:30;;;;;;;1.20;1.10;;;25.40;59.90;;;;;;219517;1287;24413;-50
2023/08/03 04:25:35;;;;;;;1.00;1.00;;;25.40;59.60;;;;;;219443;1286;22530;-49
2023/08/03 04:30:56;;;;;;;1.20;1.10;;;25.30;59.80;;;;;;219436;1283;22526;-52
2023/08/03 04:36:04;;;;;;;1.40;0.90;;;25.30;59.80;;;;;;219516;1287;23396;-48
2023/08/03 04:41:14;;;;;;;1.10;1.10;;;25.30;59.80;;;;;;219614;1280;22523;-50
2023/08/03 04:46:21;;;;;;;1.00;0.90;;;25.40;59.50;;;;;;219509;1286;22536;-53
2023/08/03 04:51:28;;;;;;;1.20;1.20;;;25.40;60.00;;;;;;219406;1280;23508;-53
2023/08/03 04:56:33;;;;;;;0.90;0.90;;;25.30;59.80;;;;;;219396;1285;22543;-50
2023/08/03 05:01:37;;;;;;;1.30;1.20;;;25.40;59.40;;;;;;219578;1286;23998;-54
2023/08/03 05:06:42;;;;;;;1.00;0.90;;;25.40;59.60;;;;;;219537;1286;25437;-53
2023/08/03 05:11:47;;;;;;;1.00;1.00;;;25.40;59.80;;;;;;219632;1286;25291;-52
2023/08/03 05:16:52;;;;;;;1.00;0.90;;;25.30;59.70;;;;;;219428;1287;22540;-54
2023/08/03 05:21:57;;;;;;;1.20;1.20;;;25.40;59.70;;;;;;219285;1274;22611;-52
2023/08/03 05:27:02;;;;;;;0.90;0.90;;;25.30;59.60;;;;;;219333;1285;24602;-52
2023/08/03 05:32:07;;;;;;;2.00;1.20;;;25.40;59.80;;;;;;219421;1283;25220;-53
2023/08/03 05:37:15;;;;;;;1.20;1.10;;;25.40;59.70;;;;;;219365;1287;24392;-54
2023/08/03 05:42:20;;;;;;;1.00;0.90;;;25.40;59.60;;;;;;219484;1287;24196;-52
2023/08/03 05:47:24;;;;;;;0.80;0.80;;;25.30;59.60;;;;;;219349;1286;22601;-54
2023/08/03 05:52:29;;;;;;;0.80;0.80;;;25.30;59.90;;;;;;219644;1285;24292;-55
2023/08/03 05:57:33;;;;;;;0.90;0.90;;;25.40;59.70;;;;;;219324;1283;25333;-52
2023/08/03 06:02:38;;;;;;;1.10;1.10;;;25.30;60.20;;;;;;219498;1279;22537;-49
2023/08/03 06:07:44;;;;;;;0.90;0.90;;;25.40;59.60;;;;;;219349;1280;22800;-50
2023/08/03 06:12:48;;;;;;;1.20;1.10;;;25.40;59.60;;;;;;219456;1267;23054;-48
2023/08/03 06:18:04;;;;;;;1.00;1.00;;;25.30;60.10;;;;;;219335;1287;22661;-51
2023/08/03 06:23:27;;;;;;;1.30;1.00;;;25.30;59.60;;;;;;219601;1285;24231;-49
2023/08/03 06:28:31;;;;;;;0.90;0.90;;;25.30;59.50;;;;;;218926;1287;24075;-47
2023/08/03 06:33:37;;;;;;;3.60;1.00;;;25.10;59.90;;;;;;219113;1280;22799;-46
2023/08/03 06:38:42;;;;;;;1.00;1.00;;;25.20;60.20;;;;;;218989;1283;24221;-51
2023/08/03 06:43:46;;;;;;;3.10;1.20;;;25.30;59.90;;;;;;219302;1280;25495;-52
2023/08/03 06:48:51;;;;;;;1.30;1.20;;;25.30;60.20;;;;;;219315;1285;26527;-52
2023/08/03 06:53:55;;;;;;;0.90;0.90;;;25.30;60.10;;;;;;219257;1287;24392;-50
2023/08/03 06:58:59;;;;;;;1.00;1.00;;;25.30;60.40;;;;;;218863;1279;23908;-50
2023/08/03 07:04:04;;;;;;;1.20;1.10;;;25.30;60.30;;;;;;219388;1283;22583;-50
2023/08/03 07:09:08;;;;;;;0.70;0.70;;;25.40;60.00;;;;;;219422;1283;22927;-52
2023/08/03 07:14:12;;;;;;;1.30;1.10;;;25.40;60.40;;;;;;219480;1286;22526;-53
2023/08/03 07:19:18;;;;;;;1.20;1.10;;;25.40;59.70;;;;;;219147;1280;22523;-50
2023/08/03 07:24:23;;;;;;;0.90;0.90;;;25.40;60.10;;;;;;219315;1278;22530;-51
2023/08/03 07:29:29;;;;;;;1.30;1.20;;;25.30;60.40;;;;;;219237;1280;24296;-50
2023/08/03 07:34:33;;;;;;;0.90;0.90;;;25.40;59.90;;;;;;219285;1283;24292;-52
2023/08/03 07:39:37;;;;;;;1.30;1.20;;;25.40;60.00;;;;;;219082;1287;22543;-51
2023/08/03 07:44:42;;;;;;;1.00;1.00;;;25.30;60.30;;;;;;219538;1280;22541;-53
2023/08/03 07:49:53;;;;;;;1.10;1.00;;;25.40;60.00;;;;;;219057;1279;22539;-53
2023/08/03 07:54:57;;;;;;;1.20;0.90;;;25.30;59.80;;;;;;219116;1283;22544;-49
2023/08/03 08:00:03;;;;;;;0.80;0.80;;;25.40;60.10;;;;;;219449;1286;22712;-52
2023/08/03 08:05:15;;;;;;;0.70;0.70;;;25.40;60.10;;;;;;219533;1273;22659;-50
2023/08/03 08:10:18;;;;;;;0.90;0.80;;;25.40;59.90;;;;;;219190;1280;22541;-53
2023/08/03 08:15:23;;;;;;;1.30;1.00;;;25.50;60.10;;;;;;219030;1283;22546;-51
2023/08/03 08:20:28;;;;;;;1.10;1.00;;;25.50;60.10;;;;;;219360;1280;22541;-48
2023/08/03 08:25:37;;;;;;;0.90;0.80;;;25.50;60.10;;;;;;219229;1280;23078;-49
2023/08/03 08:30:42;;;;;;;1.80;1.20;;;25.50;59.90;;;;;;219355;1283;22684;-47
2023/08/03 08:35:49;;;;;;;1.10;1.00;;;25.30;59.70;;;;;;219415;1273;22549;-51
2023/08/03 08:40:53;;;;;;;2.20;1.20;;;25.40;60.30;;;;;;219449;1286;22550;-51
2023/08/03 08:45:57;;;;;;;1.30;1.10;;;25.40;60.80;;;;;;219082;1274;23934;-50
2023/08/03 08:51:03;;;;;;;1.50;1.40;;;25.50;60.70;;;;;;219352;1284;23155;-51
2023/08/03 08:56:11;;;;;;;1.50;1.00;;;25.60;60.90;;;;;;219215;1286;22534;-52
2023/08/03 09:01:18;;;;;;;3.30;1.20;;;25.50;60.80;;;;;;219378;1283;22542;-49
2023/08/03 09:06:22;;;;;;;3.80;0.90;;;25.50;60.50;;;;;;219098;1278;24217;-50
2023/08/03 09:11:38;;;;;;;1.20;1.10;;;25.40;60.70;;;;;;219356;1286;22533;-51
2023/08/03 09:16:43;;;;;;;1.50;1.10;;;25.50;60.60;;;;;;219080;1281;28009;-52
2023/08/03 09:21:58;;;;;;;4.10;1.10;;;25.60;60.20;;;;;;219248;1286;22528;-52
2023/08/03 09:27:06;;;;;;;1.10;1.00;;;25.70;60.50;;;;;;219202;1279;22566;-50
2023/08/03 09:32:11;;;;;;;1.30;1.00;;;25.70;60.00;;;;;;219029;1280;25245;-52
2023/08/03 09:37:32;;;;;;;1.30;1.20;;;25.70;60.00;;;;;;218919;1274;24229;-50
2023/08/03 09:42:43;;;;;;;2.50;1.20;;;25.70;59.80;;;;;;218933;1283;22570;-51
2023/08/03 09:47:50;;;;;;;1.10;0.90;;;25.70;59.80;;;;;;219015;1286;22545;-53
2023/08/03 09:52:58;;;;;;;1.60;1.00;;;25.80;59.70;;;;;;219258;1286;22615;-53
2023/08/03 09:58:06;;;;;;;1.30;1.10;;;25.70;59.90;;;;;;219395;1286;25376;-52
2023/08/03 10:03:14;;;;;;;1.30;0.90;;;25.90;59.60;;;;;;219303;1283;23157;-50
2023/08/03 10:08:22;;;;;;;1.40;1.30;;;25.90;59.50;;;;;;219404;1273;22543;-51
2023/08/03 10:13:28;;;;;;;1.50;1.20;;;25.90;59.40;;;;;;219078;1285;24489;-53
2023/08/03 10:18:35;;;;;;;0.90;0.90;;;25.90;59.40;;;;;;219159;1284;22653;-53
2023/08/03 10:24:11;;;;;;;1.40;0.90;;;25.90;59.10;;;;;;219287;1286;24360;-53
2023/08/03 10:29:16;;;;;;;3.40;1.10;;;25.90;59.70;;;;;;219367;1263;25246;-51
2023/08/03 10:34:25;;;;;;;5.30;1.00;;;25.80;58.60;;;;;;219495;1284;24103;-50
2023/08/03 10:39:48;;;;;;;1.40;1.20;;;25.70;59.60;;;;;;219668;1280;22540;-52
2023/08/03 10:44:54;;;;;;;1.60;1.00;;;25.80;59.20;;;;;;219425;1273;23088;-50
2023/08/03 10:49:58;;;;;;;2.70;1.10;;;25.90;59.10;;;;;;219432;1284;24404;-53
2023/08/03 10:55:27;;;;;;;1.00;1.00;;;25.90;59.00;;;;;;219431;1264;25300;-51
2023/08/03 11:00:31;;;;;;;1.30;1.20;;;25.90;59.00;;;;;;219399;1286;25359;-49
2023/08/03 11:05:36;;;;;;;1.30;1.10;;;25.90;59.00;;;;;;219234;1280;22640;-50
2023/08/03 11:10:40;;;;;;;1.10;1.00;;;25.90;58.80;;;;;;219324;1283;22534;-53
2023/08/03 11:15:45;;;;;;;1.10;1.00;;;26.00;58.70;;;;;;219486;1286;22717;-51
2023/08/03 11:20:50;;;;;;;1.00;0.80;;;26.00;58.20;;;;;;219283;1280;24376;-51
2023/08/03 11:25:55;;;;;;;1.20;0.80;;;26.00;58.90;;;;;;219134;1286;23539;-48
2023/08/03 11:31:00;;;;;;;4.10;1.10;;;26.00;59.00;;;;;;219753;1283;22815;-50
2023/08/03 11:36:05;;;;;;;1.60;1.00;;;26.00;59.10;;;;;;219221;1283;22611;-53
2023/08/03 11:41:09;;;;;;;4.20;1.40;;;26.00;58.80;;;;;;219152;1273;25367;-52
2023/08/03 11:46:14;;;;;;;1.40;0.90;;;26.10;59.10;;;;;;219129;1273;25992;-51
2023/08/03 11:51:33;;;;;;;1.00;0.90;;;26.20;59.40;;;;;;219346;1279;24418;-53
2023/08/03 11:56:38;;;;;;;0.90;0.90;;;26.20;58.70;;;;;;219478;1276;25461;-50
2023/08/03 12:01:47;;;;;;;1.70;0.90;;;26.20;58.70;;;;;;219195;1280;24230;-48
2023/08/03 12:06:53;;;;;;;2.00;1.20;;;26.20;58.70;;;;;;219189;1283;22550;-53
2023/08/03 12:12:10;;;;;;;0.90;0.90;;;26.20;58.70;;;;;;219335;1277;23092;-47
2023/08/03 12:17:15;;;;;;;3.30;1.10;;;26.20;58.70;;;;;;219297;1280;25429;-51
2023/08/03 12:22:19;;;;;;;3.40;0.90;;;26.20;58.80;;;;;;219440;1281;22537;-52
2023/08/03 12:27:24;;;;;;;2.00;1.10;;;26.20;58.70;;;;;;219318;1286;22580;-51
2023/08/03 12:32:28;;;;;;;1.30;1.00;;;26.30;58.60;;;;;;219160;1272;22672;-53
2023/08/03 12:37:35;;;;;;;1.60;1.10;;;26.30;58.40;;;;;;219511;1286;22531;-51
2023/08/03 12:42:39;;;;;;;1.50;0.90;;;26.40;58.40;;;;;;219142;1287;22661;-51
2023/08/03 12:47:45;;;;;;;1.30;1.00;;;26.30;58.40;;;;;;219038;1283;23825;-50
2023/08/03 12:52:55;;;;;;;2.10;1.00;;;26.40;58.60;;;;;;219645;1283;22697;-50
2023/08/03 12:57:59;;;;;;;1.00;0.80;;;26.30;58.60;;;;;;219181;1286;23992;-51
2023/08/03 13:03:04;;;;;;;0.70;0.70;;;26.30;58.70;;;;;;219381;1283;24540;-50
2023/08/03 13:08:08;;;;;;;0.70;0.60;;;26.30;58.80;;;;;;219273;1283;26570;-51
2023/08/03 13:13:17;;;;;;;2.60;0.90;;;26.40;58.70;;;;;;219351;1283;22552;-54
2023/08/03 13:18:23;;;;;;;1.40;1.10;;;26.40;58.70;;;;;;219163;1282;22534;-52
2023/08/03 13:23:27;;;;;;;2.90;1.20;;;26.40;58.40;;;;;;219340;1280;22531;-49
2023/08/03 13:28:32;;;;;;;1.50;0.90;;;26.40;58.40;;;;;;219378;1283;22537;-53
2023/08/03 13:33:36;;;;;;;1.00;0.70;;;26.40;58.00;;;;;;219186;1280;22559;-49
2023/08/03 13:38:40;;;;;;;0.70;0.70;;;26.40;58.80;;;;;;219285;1286;22553;-49
2023/08/03 13:43:45;;;;;;;1.50;0.90;;;26.40;58.80;;;;;;219433;1286;22641;-49
2023/08/03 13:48:50;;;;;;;0.70;0.70;;;26.40;58.40;;;;;;219296;1283;22953;-50
2023/08/03 13:53:54;;;;;;;0.80;0.70;;;26.40;58.50;;;;;;219379;1280;24322;-53
2023/08/03 13:58:59;;;;;;;0.90;0.80;;;26.40;58.60;;;;;;219380;1286;22599;-52
2023/08/03 14:04:04;;;;;;;0.60;0.60;;;26.30;58.50;;;;;;219149;1280;25296;-53
2023/08/03 14:09:11;;;;;;;0.90;0.90;;;26.40;58.60;;;;;;218524;1286;24791;-52
2023/08/03 14:14:15;;;;;;;0.80;0.80;;;26.40;58.70;;;;;;218449;1289;253990;-52
2023/08/03 14:19:22;;;;;;;1.30;0.80;;;26.40;58.60;;;;;;218503;1288;23950;-52
2023/08/03 14:24:27;;;;;;;0.70;0.70;;;26.40;58.60;;;;;;218409;1276;25424;-50
2023/08/03 14:29:31;;;;;;;1.60;0.80;;;26.50;58.60;;;;;;219079;1288;22543;-53
2023/08/03 14:34:35;;;;;;;0.70;0.70;;;26.50;58.70;;;;;;219210;1282;22530;-49
2023/08/03 14:39:42;;;;;;;2.40;0.80;;;26.50;58.30;;;;;;219310;1280;22549;-51
2023/08/03 14:44:47;;;;;;;0.80;0.60;;;26.50;58.30;;;;;;219202;1274;22543;-52
2023/08/03 14:49:56;;;;;;;1.10;0.80;;;26.50;57.90;;;;;;219233;1273;24371;-51
2023/08/03 14:55:05;;;;;;;1.30;0.80;;;26.50;58.10;;;;;;219177;1283;22527;-51
2023/08/03 15:00:10;;;;;;;1.30;0.80;;;26.50;58.20;;;;;;219406;1279;22665;-51
2023/08/03 15:05:17;;;;;;;0.50;0.50;;;26.50;58.60;;;;;;219379;1280;22556;-51
2023/08/03 15:10:22;;;;;;;1.50;1.10;;;26.50;58.20;;;;;;219460;1279;22539;-53
2023/08/03 15:15:26;;;;;;;2.50;0.90;;;26.50;59.00;;;;;;219257;1286;22550;-53
2023/08/03 15:20:33;;;;;;;0.80;0.50;;;26.50;58.10;;;;;;219506;1280;22662;-52
2023/08/03 15:25:40;;;;;;;2.10;0.90;;;26.40;58.40;;;;;;219293;1280;24456;-51
2023/08/03 15:30:50;;;;;;;1.70;0.80;;;26.40;58.50;;;;;;219143;1283;22947;-53
2023/08/03 15:36:06;;;;;;;1.40;0.90;;;26.40;58.50;;;;;;219334;1283;24772;-53
2023/08/03 15:41:13;;;;;;;2.80;0.80;;;26.30;58.40;;;;;;219183;1283;22536;-51
2023/08/03 15:46:19;;;;;;;2.10;0.90;;;26.40;58.40;;;;;;219314;1280;25236;-53
2023/08/03 15:51:31;;;;;;;;;;;26.30;58.60;;;;;;219370;1283;22540;-54
2023/08/03 15:56:42;;;;;;;;;;;26.40;58.50;;;;;;219678;1286;24284;-49
2023/08/03 16:01:47;;;;;;;1.70;0.80;;;26.40;58.40;;;;;;219516;1286;22533;-52
2023/08/03 16:06:51;;;;;;;0.70;0.70;;;26.40;58.80;;;;;;219569;1283;23951;-52
2023/08/03 16:11:56;;;;;;;0.60;0.60;;;26.40;58.50;;;;;;219529;1280;25413;-53
2023/08/03 16:17:00;;;;;;;0.70;0.70;;;26.30;58.30;;;;;;219683;1286;25400;-50
2023/08/03 16:22:05;;;;;;;0.70;0.70;;;26.30;58.60;;;;;;219434;1286;22544;-53
2023/08/03 16:27:10;;;;;;;0.80;0.70;;;26.30;58.30;;;;;;219508;1283;22529;-52
2023/08/03 16:32:15;;;;;;;0.60;0.60;;;26.20;58.20;;;;;;219503;1286;25278;-50
2023/08/03 16:37:19;;;;;;;0.80;0.70;;;26.30;59.00;;;;;;219321;1264;24374;-50
2023/08/03 16:42:24;;;;;;;0.80;0.50;;;26.20;58.10;;;;;;219450;1287;22793;-52
2023/08/03 16:47:47;;;;;;;1.10;0.80;;;26.20;58.10;;;;;;219185;1283;22660;-52
2023/08/03 16:52:52;;;;;;;0.70;0.60;;;26.20;58.50;;;;;;219359;1283;22537;-53
2023/08/03 16:57:56;;;;;;;1.70;0.60;;;26.20;58.00;;;;;;219447;1283;23947;-51
2023/08/03 17:03:02;;;;;;;0.70;0.70;;;26.30;58.10;;;;;;219527;1283;24230;-51
2023/08/03 17:08:08;;;;;;;1.10;0.70;;;26.20;58.10;;;;;;219582;1286;24219;-48
2023/08/03 17:13:16;;;;;;;0.70;0.60;;;26.20;57.70;;;;;;219432;1284;22537;-50
2023/08/03 17:18:20;;;;;;;0.70;0.70;;;26.20;57.70;;;;;;219298;1280;24196;-51
2023/08/03 17:23:26;;;;;;;0.50;0.50;;;26.20;57.60;;;;;;219352;1286;22949;-52
2023/08/03 17:28:31;;;;;;;0.60;0.60;;;26.20;57.70;;;;;;219445;1280;25169;-52
2023/08/03 17:33:36;;;;;;;1.10;0.50;;;26.20;57.60;;;;;;219637;1286;22664;-49
2023/08/03 17:38:41;;;;;;;0.80;0.60;;;26.20;57.90;;;;;;219668;1280;22542;-51
2023/08/03 17:43:45;;;;;;;0.60;0.60;;;26.20;57.50;;;;;;219518;1273;24225;-53
2023/08/03 17:48:50;;;;;;;0.60;0.40;;;26.20;57.60;;;;;;219608;1286;22547;-51
2023/08/03 17:53:55;;;;;;;0.50;0.50;;;26.20;57.10;;;;;;219549;1273;22672;-49
2023/08/03 17:59:00;;;;;;;1.00;0.70;;;26.20;57.60;;;;;;219244;1286;22536;-50
2023/08/03 18:04:07;;;;;;;0.60;0.60;;;26.10;57.40;;;;;;219218;1283;24307;-53
2023/08/03 18:09:12;;;;;;;1.50;0.40;;;26.20;57.60;;;;;;219534;1286;22536;-56
2023/08/03 18:14:17;;;;;;;0.80;0.60;;;26.10;57.90;;;;;;219484;1285;23000;-50
2023/08/03 18:19:22;;;;;;;1.30;0.40;;;26.20;57.70;;;;;;219511;1282;25433;-52
2023/08/03 18:24:27;;;;;;;0.60;0.60;;;26.10;57.60;;;;;;219463;1283;25486;-51
2023/08/03 18:29:35;;;;;;;0.80;0.50;;;26.10;57.70;;;;;;219497;1283;25942;-54
2023/08/03 18:34:39;;;;;;;0.60;0.60;;;26.10;57.70;;;;;;219493;1283;24171;-53
2023/08/03 18:39:44;;;;;;;0.50;0.50;;;26.00;57.70;;;;;;219532;1286;22543;-52
2023/08/03 18:44:49;;;;;;;1.00;0.90;;;26.10;58.20;;;;;;218975;1283;25425;-49
2023/08/03 18:49:53;;;;;;;0.70;0.50;;;26.00;58.10;;;;;;219238;1283;22906;-55
2023/08/03 18:54:58;;;;;;;0.50;0.50;;;26.00;57.80;;;;;;218945;1286;24404;-50
2023/08/03 19:00:04;;;;;;;0.40;0.40;;;26.00;57.80;;;;;;219073;1289;23431;-52
2023/08/03 19:05:10;;;;;;;0.50;0.50;;;26.00;57.80;;;;;;219034;1287;22534;-52
2023/08/03 19:10:16;;;;;;;0.50;0.50;;;26.00;58.10;;;;;;219087;1283;24390;-49
2023/08/03 19:15:21;;;;;;;1.80;0.50;;;26.00;57.70;;;;;;218913;1289;24301;-52
2023/08/03 19:20:26;;;;;;;0.80;0.80;;;26.00;57.60;;;;;;219157;1277;22550;-50
2023/08/03 19:25:30;;;;;;;0.70;0.50;;;26.00;57.90;;;;;;219283;1285;25490;-52
2023/08/03 19:30:38;;;;;;;0.80;0.60;;;26.00;57.60;;;;;;219447;1285;25470;-51
2023/08/03 19:35:46;;;;;;;0.80;0.50;;;26.00;57.80;;;;;;219321;1282;24843;-51
2023/08/03 19:40:54;;;;;;;0.70;0.70;;;26.00;57.70;;;;;;219497;1285;22778;-54
2023/08/03 19:45:59;;;;;;;0.60;0.60;;;26.00;57.60;;;;;;219297;1283;24281;-50
2023/08/03 19:51:04;;;;;;;0.30;0.30;;;26.00;57.60;;;;;;219458;1264;25328;-55
2023/08/03 19:56:12;;;;;;;0.70;0.50;;;26.00;57.60;;;;;;219463;1284;22670;-53
2023/08/03 20:01:23;;;;;;;1.10;1.00;;;26.00;57.60;;;;;;219375;1274;22585;-51
2023/08/03 20:06:31;;;;;;;0.40;0.40;;;26.00;57.60;;;;;;219453;1283;22516;-50
2023/08/03 20:11:36;;;;;;;0.60;0.50;;;26.00;57.90;;;;;;219304;1283;22544;-49
2023/08/03 20:16:41;;;;;;;0.50;0.50;;;26.00;57.80;;;;;;219343;1281;24915;-49
2023/08/03 20:21:45;;;;;;;0.70;0.50;;;26.00;57.40;;;;;;219175;1280;22579;-48
2023/08/03 20:26:56;;;;;;;0.90;0.50;;;26.00;57.40;;;;;;219391;1281;22572;-51
2023/08/03 20:32:28;;;;;;;0.50;0.50;;;26.00;57.90;;;;;;219359;1283;22533;-52
2023/08/03 20:37:32;;;;;;;0.50;0.50;;;26.00;57.50;;;;;;219558;1283;24786;-52
2023/08/03 20:42:37;;;;;;;1.20;0.50;;;25.90;57.50;;;;;;219485;1280;22590;-50
2023/08/03 20:47:44;;;;;;;1.50;0.60;;;26.00;57.50;;;;;;219371;1286;24764;-47
2023/08/03 20:52:48;;;;;;;0.50;0.40;;;25.90;57.50;;;;;;219588;1283;22560;-49
2023/08/03 20:57:56;;;;;;;1.60;0.60;;;25.90;57.50;;;;;;219439;1280;22583;-53
2023/08/03 21:03:00;;;;;;;1.00;0.50;;;25.90;57.60;;;;;;219518;1280;24889;-50
2023/08/03 21:08:05;;;;;;;0.80;0.60;;;25.90;57.60;;;;;;219186;1288;24196;-53
2023/08/03 21:13:09;;;;;;;0.50;0.50;;;25.90;57.50;;;;;;219217;1286;23766;-54
2023/08/03 21:18:14;;;;;;;0.60;0.60;;;25.90;57.50;;;;;;219345;1283;22586;-55
2023/08/03 21:23:21;;;;;;;1.00;0.50;;;25.90;57.80;;;;;;219155;1287;22527;-53
2023/08/03 21:28:25;;;;;;;0.40;0.40;;;25.90;57.50;;;;;;219382;1284;23636;-52
2023/08/03 21:33:33;;;;;;;0.60;0.50;;;25.80;57.40;;;;;;219230;1286;24684;-51
2023/08/03 21:38:37;;;;;;;0.50;0.50;;;25.90;57.40;;;;;;219434;1283;23379;-53
2023/08/03 21:43:41;;;;;;;0.50;0.50;;;25.80;57.30;;;;;;219407;1285;22539;-53
2023/08/03 21:48:45;;;;;;;0.60;0.60;;;25.80;57.40;;;;;;219356;1285;22549;-52
2023/08/03 21:53:49;;;;;;;0.70;0.40;;;25.80;57.50;;;;;;219449;1284;24187;-53
2023/08/03 21:58:57;;;;;;;0.60;0.50;;;25.80;57.40;;;;;;219494;1285;22533;-52
2023/08/03 22:04:01;;;;;;;0.60;0.60;;;25.80;57.50;;;;;;219477;1283;22646;-52
2023/08/03 22:09:06;;;;;;;0.50;0.50;;;25.80;57.40;;;;;;219201;1280;22756;-51
2023/08/03 22:14:10;;;;;;;0.40;0.40;;;25.80;57.40;;;;;;219425;1286;22610;-54
2023/08/03 22:19:15;;;;;;;1.20;0.60;;;25.80;57.80;;;;;;219260;1286;22539;-52
2023/08/03 22:24:20;;;;;;;0.50;0.50;;;25.80;57.50;;;;;;219486;1285;22477;-52
2023/08/03 22:29:24;;;;;;;0.90;0.70;;;25.80;57.50;;;;;;219477;1286;25908;-52
2023/08/03 22:34:28;;;;;;;1.00;0.50;;;25.80;57.50;;;;;;219418;1286;22553;-52
2023/08/03 22:39:33;;;;;;;0.70;0.50;;;25.80;57.50;;;;;;219348;1286;22547;-54
2023/08/03 22:44:37;;;;;;;0.70;0.50;;;25.80;57.50;;;;;;219418;1280;23984;-51
2023/08/03 22:49:42;;;;;;;0.50;0.50;;;25.80;57.50;;;;;;219538;1283;22540;-53
2023/08/03 22:54:49;;;;;;;2.30;0.70;;;25.70;57.90;;;;;;219482;1283;24418;-51
2023/08/03 22:59:53;;;;;;;0.50;0.50;;;25.70;57.50;;;;;;219276;1286;23930;-48
2023/08/03 23:04:57;;;;;;;0.60;0.60;;;25.70;57.50;;;;;;219429;1286;22544;-49
2023/08/03 23:10:03;;;;;;;0.50;0.50;;;25.70;57.50;;;;;;219480;1286;24244;-51
2023/08/03 23:15:08;;;;;;;0.50;0.50;;;25.70;57.70;;;;;;219530;1282;22540;-49
2023/08/03 23:20:12;;;;;;;0.50;0.50;;;25.70;58.00;;;;;;219594;1285;22531;-51
2023/08/03 23:25:17;;;;;;;3.90;0.70;;;25.70;57.60;;;;;;219498;1286;24227;-50
2023/08/03 23:30:21;;;;;;;0.70;0.60;;;25.70;57.60;;;;;;219350;1284;25619;-49
2023/08/03 23:35:25;;;;;;;0.50;0.50;;;25.70;57.60;;;;;;219209;1286;22544;-52
2023/08/03 23:40:30;;;;;;;0.60;0.60;;;25.70;57.60;;;;;;219245;1286;24227;-50
2023/08/03 23:45:34;;;;;;;1.30;0.50;;;25.70;57.70;;;;;;219422;1283;23379;-48
2023/08/03 23:50:39;;;;;;;0.60;0.60;;;25.70;57.80;;;;;;219491;1283;22534;-52
2023/08/03 23:55:43;;;;;;;0.40;0.40;;;25.60;57.70;;;;;;219409;1287;22540;-52
